createdAt,value
2022-08-08T00:00:56.638Z,21.14
2022-08-08T00:03:28.456Z,21.08
2022-08-08T00:06:35.217Z,21.04
2022-08-08T00:09:16.713Z,21.04
2022-08-08T00:12:07.117Z,21.19
2022-08-08T00:14:56.894Z,21.16
2022-08-08T00:17:35.234Z,21.08
2022-08-08T00:20:30.589Z,21.06
2022-08-08T00:23:02.637Z,20.90
2022-08-08T00:25:46.764Z,21.03
2022-08-08T00:28:35.266Z,21.03
2022-08-08T00:32:15.497Z,20.93
2022-08-08T00:34:46.245Z,20.95
2022-08-08T00:37:47.370Z,20.74
2022-08-08T00:41:13.013Z,20.62
2022-08-08T00:43:41.073Z,20.58
2022-08-08T00:46:24.162Z,20.50
2022-08-08T00:49:22.106Z,20.47
2022-08-08T00:52:07.850Z,20.44
2022-08-08T00:54:53.289Z,20.44
2022-08-08T00:57:58.928Z,20.39
2022-08-08T01:00:31.192Z,20.31
2022-08-08T01:04:02.804Z,20.30
2022-08-08T01:06:27.077Z,20.35
2022-08-08T01:09:35.831Z,20.36
2022-08-08T01:12:44.201Z,20.37
2022-08-08T01:15:47.169Z,20.34
2022-08-08T01:18:53.356Z,20.37
2022-08-08T01:22:09.769Z,20.26
2022-08-08T01:24:54.331Z,20.05
2022-08-08T01:27:44.170Z,20.15
2022-08-08T01:30:53.585Z,20.06
2022-08-08T01:33:53.925Z,19.91
2022-08-08T01:36:48.484Z,19.95
2022-08-08T01:39:53.720Z,20.01
2022-08-08T01:42:53.487Z,19.95
2022-08-08T01:45:37.614Z,19.92
2022-08-08T01:48:30.962Z,19.93
2022-08-08T01:51:32.037Z,19.92
2022-08-08T01:55:27.052Z,19.86
2022-08-08T01:58:11.767Z,19.87
2022-08-08T02:01:20.428Z,19.81
2022-08-08T02:04:01.822Z,19.83
2022-08-08T02:06:54.760Z,19.79
2022-08-08T02:10:01.498Z,19.81
2022-08-08T02:12:37.604Z,19.83
2022-08-08T02:15:40.353Z,19.81
2022-08-08T02:18:10.833Z,19.74
2022-08-08T02:21:08.578Z,19.72
2022-08-08T02:23:48.525Z,19.75
2022-08-08T02:26:29.408Z,19.76
2022-08-08T02:29:18.928Z,19.75
2022-08-08T02:32:22.571Z,19.75
2022-08-08T02:35:10.885Z,19.82
2022-08-08T02:38:16.153Z,19.85
2022-08-08T02:41:59.589Z,20.00
2022-08-08T02:44:38.151Z,20.10
2022-08-08T02:47:17.238Z,20.38
2022-08-08T02:49:50.857Z,21.08
2022-08-08T02:52:50.811Z,21.75
2022-08-08T02:55:40.185Z,22.52
2022-08-08T02:58:16.599Z,23.52
2022-08-08T03:01:05.154Z,24.48
2022-08-08T03:05:03.695Z,25.44
2022-08-08T03:07:19.524Z,26.32
2022-08-08T03:10:32.857Z,27.28
2022-08-08T03:13:34.111Z,28.07
2022-08-08T03:16:11.955Z,28.89
2022-08-08T03:18:54.727Z,29.50
2022-08-08T03:21:27.088Z,30.28
2022-08-08T03:24:09.000Z,30.70
2022-08-08T03:26:42.425Z,30.89
2022-08-08T03:29:20.804Z,30.99
2022-08-08T03:32:28.772Z,31.49
2022-08-08T03:34:56.877Z,31.96
2022-08-08T03:38:54.116Z,32.39
2022-08-08T03:40:29.960Z,32.58
2022-08-08T03:43:18.152Z,32.58
2022-08-08T03:46:06.015Z,33.13
2022-08-08T03:49:08.881Z,33.34
2022-08-08T03:51:39.995Z,34.01
2022-08-08T03:54:09.901Z,34.66
2022-08-08T03:56:46.382Z,35.29
2022-08-08T03:59:22.674Z,35.60
2022-08-08T04:02:23.002Z,35.69
2022-08-08T04:04:39.992Z,35.84
2022-08-08T04:07:09.468Z,36.26
2022-08-08T04:09:59.433Z,36.81
2022-08-08T04:12:26.223Z,37.28
2022-08-08T04:14:57.679Z,37.74
2022-08-08T04:17:58.495Z,37.91
2022-08-08T04:20:13.181Z,37.66
2022-08-08T04:22:44.091Z,37.13
2022-08-08T04:25:15.468Z,36.84
2022-08-08T04:28:02.600Z,37.00
2022-08-08T04:30:39.815Z,37.64
2022-08-08T04:33:12.410Z,37.58
2022-08-08T04:35:50.862Z,37.04
2022-08-08T04:38:21.997Z,36.54
2022-08-08T04:40:51.413Z,36.09
2022-08-08T04:43:31.768Z,36.43
2022-08-08T04:46:14.766Z,37.27
2022-08-08T04:48:43.661Z,37.61
2022-08-08T04:51:17.484Z,37.81
2022-08-08T04:54:37.405Z,37.58
2022-08-08T04:56:41.685Z,37.85
2022-08-08T04:59:12.816Z,37.74
2022-08-08T05:01:48.131Z,37.67
2022-08-08T05:04:16.453Z,37.34
2022-08-08T05:06:50.519Z,37.38
2022-08-08T05:09:20.682Z,37.31
2022-08-08T05:11:57.095Z,37.48
2022-08-08T05:14:26.144Z,37.28
2022-08-08T05:17:01.398Z,37.25
2022-08-08T05:20:10.985Z,37.42
2022-08-08T05:22:17.535Z,37.60
2022-08-08T05:24:48.255Z,38.05
2022-08-08T05:27:18.490Z,38.32
2022-08-08T05:29:50.249Z,38.36
2022-08-08T05:32:24.627Z,38.57
2022-08-08T05:34:59.577Z,38.98
2022-08-08T05:37:51.976Z,38.56
2022-08-08T05:40:27.580Z,37.70
2022-08-08T05:43:17.077Z,37.85
2022-08-08T05:46:08.027Z,37.55
2022-08-08T05:48:38.022Z,36.96
2022-08-08T05:51:15.200Z,36.84
2022-08-08T05:54:26.149Z,36.94
2022-08-08T05:56:42.198Z,36.73
2022-08-08T06:00:00.956Z,37.33
2022-08-08T06:02:44.099Z,37.97
2022-08-08T06:05:34.005Z,38.24
2022-08-08T06:08:10.237Z,38.36
2022-08-08T06:11:01.757Z,38.87
2022-08-08T06:13:35.719Z,38.99
2022-08-08T06:16:19.131Z,39.04
2022-08-08T06:18:55.752Z,39.05
2022-08-08T06:21:32.811Z,39.22
2022-08-08T06:24:23.142Z,39.41
2022-08-08T06:27:04.744Z,39.60
2022-08-08T06:30:00.760Z,39.44
2022-08-08T06:32:31.373Z,38.94
2022-08-08T06:36:03.781Z,38.55
2022-08-08T06:38:01.634Z,39.04
2022-08-08T06:40:31.949Z,39.09
2022-08-08T06:43:06.334Z,39.05
2022-08-08T06:45:39.252Z,39.29
2022-08-08T06:48:07.088Z,39.38
2022-08-08T06:50:39.872Z,39.30
2022-08-08T06:53:17.261Z,39.04
2022-08-08T06:56:02.397Z,38.83
2022-08-08T06:58:33.693Z,38.10
2022-08-08T07:01:11.722Z,37.58
2022-08-08T07:04:40.056Z,36.40
2022-08-08T07:06:56.295Z,34.90
2022-08-08T07:09:45.609Z,33.58
2022-08-08T07:12:34.558Z,32.32
2022-08-08T07:15:09.152Z,31.34
2022-08-08T07:18:34.989Z,30.57
2022-08-08T07:21:05.306Z,30.22
2022-08-08T07:24:06.192Z,29.84
2022-08-08T07:26:39.014Z,29.65
2022-08-08T07:29:11.705Z,29.49
2022-08-08T07:31:52.349Z,29.41
2022-08-08T07:34:32.520Z,29.37
2022-08-08T07:37:11.826Z,29.51
2022-08-08T07:39:56.260Z,29.59
2022-08-08T07:42:33.483Z,29.70
2022-08-08T07:45:03.157Z,29.69
2022-08-08T07:47:38.524Z,29.71
2022-08-08T07:50:07.629Z,29.71
2022-08-08T07:52:36.474Z,29.72
2022-08-08T07:55:17.422Z,29.66
2022-08-08T07:58:02.059Z,29.93
2022-08-08T08:00:39.779Z,30.09
2022-08-08T08:03:20.709Z,30.05
2022-08-08T08:05:53.353Z,30.21
2022-08-08T08:08:28.266Z,30.17
2022-08-08T08:11:01.666Z,30.16
2022-08-08T08:14:08.372Z,30.21
2022-08-08T08:16:32.446Z,30.42
2022-08-08T08:19:02.798Z,30.30
2022-08-08T08:21:52.810Z,30.57
2022-08-08T08:24:32.604Z,30.51
2022-08-08T08:27:04.939Z,30.39
2022-08-08T08:29:51.079Z,30.41
2022-08-08T08:32:32.064Z,30.34
2022-08-08T08:35:05.322Z,30.25
2022-08-08T08:37:59.160Z,30.28
2022-08-08T08:40:25.913Z,30.27
2022-08-08T08:42:58.551Z,30.14
2022-08-08T08:45:32.486Z,30.25
2022-08-08T08:48:19.517Z,30.23
2022-08-08T08:50:53.095Z,30.33
2022-08-08T08:53:28.220Z,30.44
2022-08-08T08:56:25.933Z,30.50
2022-08-08T08:59:03.981Z,30.68
2022-08-08T09:01:45.645Z,30.73
2022-08-08T09:04:38.697Z,30.74
2022-08-08T09:07:13.808Z,30.85
2022-08-08T09:09:57.239Z,30.87
2022-08-08T09:12:27.573Z,30.98
2022-08-08T09:15:00.301Z,30.94
2022-08-08T09:17:40.785Z,30.90
2022-08-08T09:21:57.377Z,30.99
2022-08-08T09:22:59.206Z,31.20
2022-08-08T09:25:54.627Z,31.27
2022-08-08T09:28:37.875Z,31.35
2022-08-08T09:31:15.105Z,31.36
2022-08-08T09:34:28.453Z,31.45
2022-08-08T09:37:28.534Z,31.65
2022-08-08T09:40:01.087Z,31.60
2022-08-08T09:42:51.626Z,31.69
2022-08-08T09:46:02.006Z,31.71
2022-08-08T09:48:21.070Z,31.78
2022-08-08T09:50:55.855Z,31.80
2022-08-08T09:53:59.069Z,31.89
2022-08-08T09:56:47.352Z,32.05
2022-08-08T10:00:02.454Z,32.14
2022-08-08T10:02:29.324Z,32.15
2022-08-08T10:05:15.155Z,32.19
2022-08-08T10:08:00.749Z,32.18
2022-08-08T10:10:38.819Z,32.18
2022-08-08T10:13:19.493Z,32.23
2022-08-08T10:16:01.551Z,32.37
2022-08-08T10:18:33.536Z,32.27
2022-08-08T10:21:22.627Z,32.26
2022-08-08T10:24:00.015Z,32.38
2022-08-08T10:26:59.528Z,32.51
2022-08-08T10:29:58.740Z,32.54
2022-08-08T10:32:37.747Z,32.71
2022-08-08T10:35:10.600Z,32.79
2022-08-08T10:38:05.335Z,32.88
2022-08-08T10:40:33.696Z,32.80
2022-08-08T10:43:09.913Z,32.75
2022-08-08T10:45:57.112Z,32.82
2022-08-08T10:48:56.155Z,32.89
2022-08-08T10:51:31.404Z,32.95
2022-08-08T10:54:10.477Z,33.02
2022-08-08T10:56:43.277Z,33.07
2022-08-08T10:59:17.262Z,33.10
2022-08-08T11:01:54.847Z,33.17
2022-08-08T11:04:39.292Z,33.23
2022-08-08T11:07:14.990Z,33.26
2022-08-08T11:10:10.963Z,33.27
2022-08-08T11:13:06.637Z,33.34
2022-08-08T11:16:32.966Z,33.39
2022-08-08T11:19:17.264Z,33.45
2022-08-08T11:21:54.179Z,33.46
2022-08-08T11:24:29.075Z,33.50
2022-08-08T11:27:03.006Z,33.50
2022-08-08T11:30:04.210Z,33.57
2022-08-08T11:32:32.186Z,33.59
2022-08-08T11:35:27.662Z,33.62
2022-08-08T11:38:35.293Z,33.67
2022-08-08T11:40:52.445Z,33.73
2022-08-08T11:43:25.843Z,33.83
2022-08-08T11:46:18.069Z,33.96
2022-08-08T11:48:47.735Z,34.02
2022-08-08T11:51:29.606Z,34.04
2022-08-08T11:54:38.414Z,34.08
2022-08-08T11:57:30.161Z,34.11
2022-08-08T12:00:10.556Z,34.10
2022-08-08T12:03:01.056Z,34.12
2022-08-08T12:05:41.160Z,34.15
2022-08-08T12:08:12.205Z,34.15
2022-08-08T12:10:51.525Z,34.16
2022-08-08T12:13:38.257Z,34.20
2022-08-08T12:16:30.313Z,34.24
2022-08-08T12:21:59.467Z,34.32
2022-08-08T12:27:45.749Z,34.39
2022-08-08T12:30:34.337Z,34.40
2022-08-08T12:33:07.791Z,34.42
2022-08-08T12:35:40.694Z,34.47
2022-08-08T12:38:31.108Z,34.48
2022-08-08T12:41:18.301Z,34.49
2022-08-08T12:44:34.525Z,34.49
2022-08-08T12:47:09.029Z,34.50
2022-08-08T12:49:46.409Z,34.53
2022-08-08T12:52:29.063Z,34.57
2022-08-08T12:55:15.791Z,34.56
2022-08-08T12:58:15.889Z,34.55
2022-08-08T13:00:53.095Z,34.53
2022-08-08T13:03:33.616Z,34.49
2022-08-08T13:06:20.244Z,34.50
2022-08-08T13:08:56.324Z,34.54
2022-08-08T13:12:19.749Z,34.56
2022-08-08T13:14:39.799Z,34.59
2022-08-08T13:18:10.107Z,34.64
2022-08-08T13:20:27.559Z,34.62
2022-08-08T13:23:31.267Z,34.58
2022-08-08T13:26:18.498Z,34.56
2022-08-08T13:28:49.596Z,34.54
2022-08-08T13:31:17.430Z,34.53
2022-08-08T13:33:49.844Z,34.49
2022-08-08T13:36:25.905Z,34.50
2022-08-08T13:39:00.213Z,34.49
2022-08-08T13:41:39.443Z,34.48
2022-08-08T13:44:14.268Z,34.48
2022-08-08T13:46:57.100Z,34.46
2022-08-08T13:50:36.958Z,34.47
2022-08-08T13:52:37.888Z,34.46
2022-08-08T13:55:09.326Z,34.50
2022-08-08T13:58:06.805Z,34.49
2022-08-08T14:00:51.081Z,34.44
2022-08-08T14:03:52.939Z,34.39
2022-08-08T14:06:32.449Z,34.36
2022-08-08T14:09:24.814Z,34.32
2022-08-08T14:11:54.417Z,34.30
2022-08-08T14:14:26.975Z,34.29
2022-08-08T14:17:00.799Z,34.30
2022-08-08T14:19:58.058Z,34.30
2022-08-08T14:22:53.192Z,34.31
2022-08-08T14:25:28.810Z,34.30
2022-08-08T14:28:10.535Z,34.27
2022-08-08T14:30:53.553Z,34.28
2022-08-08T14:33:34.044Z,34.24
2022-08-08T14:36:18.194Z,34.19
2022-08-08T14:38:51.577Z,34.18
2022-08-08T14:41:45.395Z,34.14
2022-08-08T14:44:21.110Z,34.10
2022-08-08T14:47:00.399Z,34.06
2022-08-08T14:49:51.356Z,34.06
2022-08-08T14:52:25.349Z,34.05
2022-08-08T14:54:54.294Z,34.04
2022-08-08T14:58:03.176Z,33.98
2022-08-08T15:00:13.861Z,33.95
2022-08-08T15:02:58.658Z,33.93
2022-08-08T15:08:35.107Z,33.88
2022-08-08T15:11:19.053Z,33.85
2022-08-08T15:14:00.652Z,33.83
2022-08-08T15:16:35.040Z,33.81
2022-08-08T15:19:04.819Z,33.78
2022-08-08T15:21:32.821Z,33.73
2022-08-08T15:24:02.741Z,33.67
2022-08-08T15:26:31.525Z,33.62
2022-08-08T15:29:01.084Z,33.58
2022-08-08T15:32:03.167Z,33.52
2022-08-08T15:34:31.787Z,33.46
2022-08-08T15:39:48.175Z,33.37
2022-08-08T15:42:31.944Z,33.31
2022-08-08T15:45:04.292Z,33.18
2022-08-08T15:47:34.038Z,33.10
2022-08-08T15:50:16.840Z,33.04
2022-08-08T15:52:52.001Z,32.98
2022-08-08T15:55:22.723Z,32.91
2022-08-08T16:00:50.310Z,32.72
2022-08-08T16:03:18.584Z,32.63
2022-08-08T16:06:01.317Z,32.51
2022-08-08T16:08:33.561Z,32.42
2022-08-08T16:13:09.721Z,32.32
2022-08-08T16:14:07.804Z,32.19
2022-08-08T16:16:46.963Z,32.08
2022-08-08T16:19:23.408Z,32.02
2022-08-08T16:21:54.035Z,31.95
2022-08-08T16:24:23.095Z,31.87
2022-08-08T16:26:52.565Z,31.76
2022-08-08T16:29:37.101Z,31.65
2022-08-08T16:32:13.060Z,31.47
2022-08-08T16:34:47.866Z,31.32
2022-08-08T16:37:16.215Z,31.17
2022-08-08T16:40:00.446Z,31.00
2022-08-08T16:42:34.931Z,30.83
2022-08-08T16:45:11.351Z,30.63
2022-08-08T16:47:56.290Z,30.40
2022-08-08T16:50:24.418Z,30.18
2022-08-08T16:55:23.002Z,29.94
2022-08-08T16:55:55.594Z,29.61
2022-08-08T16:58:33.213Z,29.35
2022-08-08T17:01:16.644Z,29.06
2022-08-08T17:04:01.173Z,28.85
2022-08-08T17:06:43.424Z,28.67
2022-08-08T17:09:23.136Z,28.49
2022-08-08T17:11:56.603Z,28.31
2022-08-08T17:14:34.419Z,28.23
2022-08-08T17:17:41.327Z,28.10
2022-08-08T17:20:04.768Z,27.97
2022-08-08T17:22:57.277Z,27.85
2022-08-08T17:25:47.573Z,27.77
2022-08-08T17:28:34.177Z,27.72
2022-08-08T17:31:39.188Z,27.70
2022-08-08T17:34:37.190Z,27.72
2022-08-08T17:37:02.966Z,27.85
2022-08-08T17:40:03.781Z,28.02
2022-08-08T17:42:36.285Z,28.16
2022-08-08T17:45:06.351Z,28.16
2022-08-08T17:47:45.183Z,28.21
2022-08-08T17:50:34.503Z,28.21
2022-08-08T17:53:02.576Z,28.21
2022-08-08T17:56:06.972Z,28.18
2022-08-08T17:58:22.995Z,28.17
2022-08-08T18:00:58.518Z,28.14
2022-08-08T18:03:26.278Z,28.08
2022-08-08T18:05:54.880Z,28.11
2022-08-08T18:08:40.823Z,28.08
2022-08-08T18:11:23.312Z,28.06
2022-08-08T18:13:52.813Z,28.07
2022-08-08T18:16:27.031Z,28.03
2022-08-08T18:19:06.221Z,27.91
2022-08-08T18:22:01.348Z,27.88
2022-08-08T18:24:31.402Z,27.79
2022-08-08T18:27:06.142Z,27.71
2022-08-08T18:29:48.641Z,27.60
2022-08-08T18:32:19.693Z,27.57
2022-08-08T18:34:51.632Z,27.51
2022-08-08T18:37:34.962Z,27.43
2022-08-08T18:43:14.768Z,27.42
2022-08-08T18:46:55.906Z,27.40
2022-08-08T18:49:05.463Z,27.45
2022-08-08T18:52:51.844Z,27.38
2022-08-08T18:55:29.587Z,27.30
2022-08-08T18:58:01.965Z,27.28
2022-08-08T19:00:39.305Z,27.22
2022-08-08T19:06:39.226Z,27.06
2022-08-08T19:09:48.252Z,26.99
2022-08-08T19:12:53.459Z,26.92
2022-08-08T21:42:28.663Z,23.53
2022-08-08T21:44:58.700Z,23.49
2022-08-08T21:48:21.657Z,23.46
2022-08-08T21:50:16.066Z,23.42
2022-08-08T21:54:36.811Z,23.41
2022-08-08T21:56:19.396Z,23.40
2022-08-08T21:58:19.685Z,23.38
2022-08-08T22:00:55.975Z,23.34
2022-08-08T22:03:24.603Z,23.31
2022-08-08T22:05:52.111Z,23.29
2022-08-08T22:08:27.214Z,23.29
2022-08-08T22:11:22.579Z,23.28
2022-08-08T22:14:01.698Z,23.26
2022-08-08T22:16:29.312Z,23.24
2022-08-08T22:19:00.969Z,23.20
2022-08-08T22:21:36.769Z,23.19
2022-08-08T22:24:05.519Z,23.17
2022-08-08T22:26:33.051Z,23.15
2022-08-08T22:29:04.611Z,23.15
2022-08-08T22:31:43.972Z,23.27
2022-08-08T22:34:27.180Z,23.18
2022-08-08T22:36:54.832Z,23.10
2022-08-08T22:39:22.387Z,23.09
2022-08-08T22:41:55.890Z,23.08
2022-08-08T22:44:24.980Z,23.05
2022-08-08T22:46:58.282Z,23.02
2022-08-08T22:49:25.731Z,22.97
2022-08-08T22:51:54.011Z,22.91
2022-08-08T22:54:32.761Z,22.90
2022-08-08T22:57:17.978Z,22.89
2022-08-08T22:59:59.648Z,22.89
2022-08-08T23:02:29.101Z,22.86
2022-08-08T23:04:57.764Z,22.84
2022-08-08T23:07:57.493Z,22.82
2022-08-08T23:10:19.759Z,22.81
2022-08-08T23:12:51.559Z,22.79
2022-08-08T23:16:39.817Z,22.77
2022-08-08T23:18:12.014Z,22.72
2022-08-08T23:20:44.084Z,22.69
2022-08-08T23:23:12.701Z,22.65
2022-08-08T23:25:47.820Z,22.60
2022-08-08T23:28:18.177Z,22.57
2022-08-08T23:30:47.644Z,22.59
2022-08-08T23:33:21.070Z,22.59
2022-08-08T23:36:08.031Z,22.60
2022-08-08T23:38:44.073Z,22.55
2022-08-08T23:41:22.946Z,22.45
2022-08-08T23:43:56.497Z,22.38
2022-08-08T23:49:03.603Z,22.31
2022-08-08T23:49:18.162Z,22.30
2022-08-08T23:52:05.300Z,22.28
2022-08-08T23:54:43.130Z,22.32
2022-08-08T23:57:26.540Z,22.38
